This is the latest recevied weather packets stored in our database for station/object K5YNC. If no packets are shown the sender has not sent any weather packets the latest 1 day(s).
| Time | Temp. | Humidity | Pressure | Rain* | Wind** | Luminosity | Snow |
|---|---|---|---|---|---|---|---|
| 1836274582 | 26.11° C | 67% | 1017.3 hPa | 0 mm | 0.45 m/s, 159° | 0 W/m² | - |
| 1836274436 | 26.67° C | 66% | 1017.2 hPa | 0 mm | 1.79 m/s, 158° | 0 W/m² | - |
| 1836274280 | 26.11° C | 66% | 1017.4 hPa | 0 mm | 1.79 m/s, 162° | 0 W/m² | - |
| 1836274134 | 26.11° C | 66% | 1017.2 hPa | 0 mm | 2.24 m/s, 161° | 0 W/m² | - |
| 1836273980 | 25.56° C | 67% | 1017.4 hPa | 0 mm | 1.34 m/s, 204° | 0 W/m² | - |
| 1778060635 | 10° C | 81% | 1014.4 hPa | 0 mm | 2.24 m/s, 2° | 0 W/m² | - |
| 1778060332 | 10° C | 81% | 1014.4 hPa | 0 mm | 2.68 m/s, 10° | 0 W/m² | - |
| 1778060030 | 10.56° C | 80% | 1014.6 hPa | 0 mm | 2.68 m/s, 2° | 0 W/m² | - |
| 1778059727 | 10.56° C | 80% | 1014.4 hPa | 0 mm | 0.89 m/s, 2° | 0 W/m² | - |
| 1778059425 | 10.56° C | 79% | 1014.1 hPa | 0 mm | 1.34 m/s, 86° | 0 W/m² | - |
| 1778059121 | 10.56° C | 79% | 1013.8 hPa | 0 mm | 2.24 m/s, 336° | 0 W/m² | - |
| 1778058819 | 10.56° C | 79% | 1014 hPa | 0 mm | 1.34 m/s, 37° | 0 W/m² | - |
| 1778058516 | 10.56° C | 79% | 1013.9 hPa | 0 mm | 0.89 m/s, 337° | 0 W/m² | - |
| 1778058214 | 10.56° C | 79% | 1013.8 hPa | 0 mm | 1.79 m/s, 328° | 0 W/m² | - |
| 1778057910 | 10.56° C | 79% | 1013.7 hPa | 0 mm | 0.89 m/s, 356° | 0 W/m² | - |
| 1778057606 | 10.56° C | 79% | 1013.8 hPa | 0 mm | 0.89 m/s, 352° | 0 W/m² | - |
| 1778057303 | 10.56° C | 79% | 1013.7 hPa | 0 mm | 0.45 m/s, 255° | 0 W/m² | - |
| 1778057000 | 11.11° C | 79% | 1013.7 hPa | 0 mm | 0.89 m/s, 331° | 0 W/m² | - |
| 1778056697 | 11.11° C | 78% | 1013.5 hPa | 0 mm | 0.89 m/s, 25° | 0 W/m² | - |
| 1778056394 | 11.11° C | 78% | 1013.4 hPa | 0 mm | 0.89 m/s, 190° | 0 W/m² | - |
| 1778056092 | 11.11° C | 78% | 1013.4 hPa | 0 mm | 0.89 m/s, 356° | 0 W/m² | - |
| 1778055788 | 11.11° C | 78% | 1013.3 hPa | 0 mm | 0.89 m/s, 295° | 0 W/m² | - |
| 1778055485 | 11.11° C | 77% | 1013.6 hPa | 0 mm | 0.89 m/s, 348° | 0 W/m² | - |
| 1778055182 | 11.11° C | 77% | 1013.4 hPa | 0 mm | 1.79 m/s, 259° | 0 W/m² | - |
| 1778054880 | 11.11° C | 77% | 1013.2 hPa | 0 mm | 0.89 m/s, 326° | 0 W/m² | - |
* Rain latest hour (hover to see other rain measurements)
** Current wind speed in m/s (hover to see current wind gust speed)